createdAt,value
2016-02-26T00:00:08.654Z,1006.57
2016-02-26T00:01:09.078Z,1006.58
2016-02-26T00:02:08.878Z,1006.56
2016-02-26T00:03:09.037Z,1006.56
2016-02-26T00:04:09.040Z,1006.59
2016-02-26T00:05:08.995Z,1006.51
2016-02-26T00:06:08.170Z,1006.58
2016-02-26T00:07:07.548Z,1006.56
2016-02-26T00:08:07.534Z,1006.54
2016-02-26T00:09:07.506Z,1006.53
2016-02-26T00:10:07.492Z,1006.55
2016-02-26T00:11:07.480Z,1006.53
2016-02-26T00:12:07.483Z,1006.52
2016-02-26T00:13:07.454Z,1006.55
2016-02-26T00:14:07.425Z,1006.53
2016-02-26T00:15:07.413Z,1006.55
2016-02-26T00:16:07.400Z,1006.54
2016-02-26T00:17:07.372Z,1006.51
2016-02-26T00:18:07.374Z,1006.55
2016-02-26T00:19:07.345Z,1006.51
2016-02-26T00:20:07.333Z,1006.53
2016-02-26T00:21:07.304Z,1006.53
2016-02-26T00:22:07.291Z,1006.48
2016-02-26T00:23:07.278Z,1006.49
2016-02-26T00:24:07.265Z,1006.49
2016-02-26T00:25:07.236Z,1006.49
2016-02-26T00:26:07.224Z,1006.44
2016-02-26T00:27:07.210Z,1006.47
2016-02-26T00:28:07.198Z,1006.44
2016-02-26T00:29:07.169Z,1006.42
2016-02-26T00:30:07.156Z,1006.41
2016-02-26T00:31:07.143Z,1006.46
2016-02-26T00:32:07.130Z,1006.42
2016-02-26T00:33:07.102Z,1006.42
2016-02-26T00:34:07.088Z,1006.43
2016-02-26T00:35:07.060Z,1006.47
2016-02-26T00:36:07.048Z,1006.44
2016-02-26T00:37:07.034Z,1006.46
2016-02-26T00:38:07.006Z,1006.45
2016-02-26T00:39:06.992Z,1006.45
2016-02-26T00:40:06.979Z,1006.47
2016-02-26T00:41:06.967Z,1006.47
2016-02-26T00:42:06.954Z,1006.43
2016-02-26T00:43:06.925Z,1006.49
2016-02-26T00:44:06.912Z,1006.46
2016-02-26T00:45:06.900Z,1006.51
2016-02-26T00:46:06.871Z,1006.54
2016-02-26T00:47:06.858Z,1006.53
2016-02-26T00:48:06.845Z,1006.54
2016-02-26T00:49:06.816Z,1006.57
2016-02-26T00:50:06.803Z,1006.56
2016-02-26T00:51:06.806Z,1006.55
2016-02-26T00:52:06.778Z,1006.57
2016-02-26T00:53:06.750Z,1006.56
2016-02-26T00:54:06.736Z,1006.56
2016-02-26T00:55:06.724Z,1006.52
2016-02-26T00:56:06.710Z,1006.51
2016-02-26T00:57:06.682Z,1006.5
2016-02-26T00:58:06.669Z,1006.49
2016-02-26T00:59:06.641Z,1006.52
2016-02-26T01:00:06.628Z,1006.46
2016-02-26T01:01:06.615Z,1006.5
2016-02-26T01:02:06.585Z,1006.47
2016-02-26T01:03:06.573Z,1006.49
2016-02-26T01:04:06.561Z,1006.46
2016-02-26T01:05:06.547Z,1006.45
2016-02-26T01:06:06.535Z,1006.48
2016-02-26T01:07:06.506Z,1006.48
2016-02-26T01:08:06.509Z,1006.5
2016-02-26T01:09:06.479Z,1006.5
2016-02-26T01:10:06.451Z,1006.49
2016-02-26T01:11:06.454Z,1006.48
2016-02-26T01:12:06.414Z,1006.45
2016-02-26T01:13:06.374Z,1006.5
2016-02-26T01:14:06.348Z,1006.49
2016-02-26T01:15:06.323Z,1006.45
2016-02-26T01:16:06.282Z,1006.43
2016-02-26T01:17:06.264Z,1006.41
2016-02-26T01:18:06.247Z,1006.42
2016-02-26T01:19:06.230Z,1006.4
2016-02-26T01:20:06.213Z,1006.43
2016-02-26T01:21:06.179Z,1006.42
2016-02-26T01:22:06.181Z,1006.42
2016-02-26T01:23:06.151Z,1006.37
2016-02-26T01:24:06.136Z,1006.41
2016-02-26T01:25:06.122Z,1006.43
2016-02-26T01:26:06.092Z,1006.43
2016-02-26T01:27:06.062Z,1006.44
2016-02-26T01:28:06.049Z,1006.39
2016-02-26T01:29:06.035Z,1006.41
2016-02-26T01:30:06.006Z,1006.43
2016-02-26T01:31:05.992Z,1006.38
2016-02-26T01:32:05.979Z,1006.42
2016-02-26T01:33:05.950Z,1006.37
2016-02-26T01:34:05.937Z,1006.36
2016-02-26T01:35:05.925Z,1006.34
2016-02-26T01:36:05.911Z,1006.33
2016-02-26T01:37:05.899Z,1006.33
2016-02-26T01:38:05.870Z,1006.31
2016-02-26T01:39:05.857Z,1006.32
2016-02-26T01:40:05.844Z,1006.29
2016-02-26T01:41:05.816Z,1006.3
2016-02-26T01:42:05.802Z,1006.31
2016-02-26T01:43:05.790Z,1006.31
2016-02-26T01:44:05.762Z,1006.3
2016-02-26T01:45:05.748Z,1006.31
2016-02-26T01:46:05.735Z,1006.31
2016-02-26T01:47:05.723Z,1006.28
2016-02-26T01:48:05.710Z,1006.26
2016-02-26T01:49:05.681Z,1006.27
2016-02-26T01:50:05.668Z,1006.22
2016-02-26T01:51:05.639Z,1006.16
2016-02-26T01:52:05.626Z,1006.18
2016-02-26T01:53:05.614Z,1006.16
2016-02-26T01:54:05.601Z,1006.15
2016-02-26T01:55:05.572Z,1006.12
2016-02-26T01:56:05.559Z,1006.13
2016-02-26T01:57:05.547Z,1006.1
2016-02-26T01:58:05.518Z,1006.12
2016-02-26T01:59:05.505Z,1006.08
2016-02-26T02:00:05.492Z,1006.06
2016-02-26T02:01:05.463Z,1006.04
2016-02-26T02:02:05.450Z,1006.04
2016-02-26T02:03:05.438Z,1006.07
2016-02-26T02:04:05.408Z,1006.06
2016-02-26T02:05:05.396Z,1006.1
2016-02-26T02:06:05.383Z,1006.07
2016-02-26T02:07:05.370Z,1006.02
2016-02-26T02:08:05.341Z,1006.01
2016-02-26T02:09:05.329Z,1006.02
2016-02-26T02:10:05.315Z,1006
2016-02-26T02:11:05.288Z,1005.98
2016-02-26T02:12:05.274Z,1005.99
2016-02-26T02:13:05.261Z,1005.96
2016-02-26T02:14:05.232Z,1005.96
2016-02-26T02:15:05.220Z,1005.97
2016-02-26T02:16:05.207Z,1005.97
2016-02-26T02:17:05.193Z,1005.96
2016-02-26T02:18:05.165Z,1005.94
2016-02-26T02:19:05.152Z,1005.92
2016-02-26T02:20:05.139Z,1005.93
2016-02-26T02:21:05.111Z,1005.94
2016-02-26T02:22:05.098Z,1005.95
2016-02-26T02:23:05.084Z,1005.91
2016-02-26T02:24:05.072Z,1005.9
2016-02-26T02:25:05.043Z,1005.94
2016-02-26T02:26:05.031Z,1005.91
2016-02-26T02:27:05.017Z,1005.94
2016-02-26T02:28:05.005Z,1005.9
2016-02-26T02:29:04.976Z,1005.92
2016-02-26T02:30:04.964Z,1005.93
2016-02-26T02:31:04.934Z,1005.97
2016-02-26T02:32:04.922Z,1005.93
2016-02-26T02:33:04.908Z,1005.92
2016-02-26T02:34:04.881Z,1005.94
2016-02-26T02:35:04.883Z,1005.96
2016-02-26T02:36:04.855Z,1005.94
2016-02-26T02:37:04.841Z,1005.92
2016-02-26T02:38:04.828Z,1005.95
2016-02-26T02:39:04.799Z,1005.91
2016-02-26T02:40:04.787Z,1005.92
2016-02-26T02:41:04.758Z,1005.89
2016-02-26T02:42:04.746Z,1005.89
2016-02-26T02:43:04.733Z,1005.88
2016-02-26T02:44:04.719Z,1005.89
2016-02-26T02:45:04.690Z,1005.87
2016-02-26T02:46:04.678Z,1005.86
2016-02-26T02:47:04.666Z,1005.92
2016-02-26T02:48:04.637Z,1005.87
2016-02-26T02:49:04.624Z,1005.92
2016-02-26T02:50:04.610Z,1005.9
2016-02-26T02:51:04.598Z,1005.91
2016-02-26T02:52:04.569Z,1005.88
2016-02-26T02:53:04.556Z,1005.88
2016-02-26T02:54:04.543Z,1005.87
2016-02-26T02:55:04.515Z,1005.83
2016-02-26T02:56:04.502Z,1005.83
2016-02-26T02:57:04.489Z,1005.81
2016-02-26T02:58:04.460Z,1005.82
2016-02-26T02:59:04.447Z,1005.8
2016-02-26T03:00:04.435Z,1005.81
2016-02-26T03:01:04.406Z,1005.8
2016-02-26T03:02:04.393Z,1005.79
2016-02-26T03:03:04.380Z,1005.74
2016-02-26T03:04:04.367Z,1005.76
2016-02-26T03:05:04.339Z,1005.78
2016-02-26T03:06:04.330Z,1005.74
2016-02-26T03:07:04.302Z,1005.73
2016-02-26T03:08:04.289Z,1005.74
2016-02-26T03:09:04.277Z,1005.74
2016-02-26T03:10:04.248Z,1005.76
2016-02-26T03:11:04.235Z,1005.76
2016-02-26T03:12:04.223Z,1005.74
2016-02-26T03:13:04.194Z,1005.76
2016-02-26T03:14:04.181Z,1005.77
2016-02-26T03:15:04.169Z,1005.77
2016-02-26T03:16:04.155Z,1005.77
2016-02-26T03:17:04.127Z,1005.74
2016-02-26T03:18:04.113Z,1005.75
2016-02-26T03:19:04.101Z,1005.77
2016-02-26T03:20:04.072Z,1005.77
2016-02-26T03:21:04.060Z,1005.78
2016-02-26T03:22:04.046Z,1005.76
2016-02-26T03:23:04.033Z,1005.76
2016-02-26T03:24:04.004Z,1005.79
2016-02-26T03:25:03.993Z,1005.8
2016-02-26T03:26:03.979Z,1005.77
2016-02-26T03:27:03.951Z,1005.79
2016-02-26T03:28:03.937Z,1005.78
2016-02-26T03:29:03.924Z,1005.78
2016-02-26T03:30:03.896Z,1005.78
2016-02-26T03:31:03.884Z,1005.77
2016-02-26T03:32:03.870Z,1005.79
2016-02-26T03:33:03.857Z,1005.76
2016-02-26T03:34:03.828Z,1005.77
2016-02-26T03:35:03.815Z,1005.8
2016-02-26T03:36:03.803Z,1005.76
2016-02-26T03:37:03.774Z,1005.77
2016-02-26T03:38:03.762Z,1005.74
2016-02-26T03:39:03.748Z,1005.78
2016-02-26T03:40:03.720Z,1005.77
2016-02-26T03:41:03.706Z,1005.79
2016-02-26T03:42:03.694Z,1005.79
2016-02-26T03:43:03.681Z,1005.78
2016-02-26T03:44:03.653Z,1005.75
2016-02-26T03:45:03.655Z,1005.76
2016-02-26T03:46:03.627Z,1005.78
2016-02-26T03:47:03.597Z,1005.79
2016-02-26T03:48:03.585Z,1005.77
2016-02-26T03:49:03.572Z,1005.75
2016-02-26T03:50:03.559Z,1005.73
2016-02-26T03:51:03.531Z,1005.73
2016-02-26T03:52:03.518Z,1005.7
2016-02-26T03:53:03.488Z,1005.73
2016-02-26T03:54:03.476Z,1005.71
2016-02-26T03:55:03.463Z,1005.73
2016-02-26T03:56:03.451Z,1005.7
2016-02-26T03:57:03.422Z,1005.72
2016-02-26T03:58:03.409Z,1005.72
2016-02-26T03:59:03.396Z,1005.68
2016-02-26T04:00:03.367Z,1005.74
2016-02-26T04:01:03.354Z,1005.76
2016-02-26T04:02:03.342Z,1005.67
2016-02-26T04:03:03.313Z,1005.72
2016-02-26T04:04:03.315Z,1005.72
2016-02-26T04:05:03.287Z,1005.74
2016-02-26T04:06:03.273Z,1005.72
2016-02-26T04:07:03.245Z,1005.72
2016-02-26T04:08:03.233Z,1005.72
2016-02-26T04:09:03.203Z,1005.71
2016-02-26T04:10:03.191Z,1005.73
2016-02-26T04:11:03.194Z,1005.75
2016-02-26T04:12:03.149Z,1005.75
2016-02-26T04:13:03.152Z,1005.76
2016-02-26T04:14:03.125Z,1005.75
2016-02-26T04:15:03.111Z,1005.77
2016-02-26T04:16:03.083Z,1005.77
2016-02-26T04:17:03.069Z,1005.81
2016-02-26T04:18:03.056Z,1005.78
2016-02-26T04:19:03.043Z,1005.79
2016-02-26T04:20:03.015Z,1005.78
2016-02-26T04:21:03.002Z,1005.8
2016-02-26T04:22:02.974Z,1005.74
2016-02-26T04:23:02.960Z,1005.77
2016-02-26T04:24:02.947Z,1005.72
2016-02-26T04:25:02.934Z,1005.74
2016-02-26T04:26:02.921Z,1005.75
2016-02-26T04:27:02.910Z,1005.71
2016-02-26T04:28:02.880Z,1005.73
2016-02-26T04:29:02.852Z,1005.71
2016-02-26T04:30:02.870Z,1005.72
2016-02-26T04:31:02.826Z,1005.7
2016-02-26T04:32:02.812Z,1005.7
2016-02-26T04:33:02.785Z,1005.7
2016-02-26T04:34:02.771Z,1005.71
2016-02-26T04:35:02.759Z,1005.72
2016-02-26T04:36:02.729Z,1005.71
2016-02-26T04:37:02.717Z,1005.73
2016-02-26T04:38:02.703Z,1005.72
2016-02-26T04:39:02.675Z,1005.72
2016-02-26T04:40:02.663Z,1005.69
2016-02-26T04:41:02.650Z,1005.71
2016-02-26T04:42:02.620Z,1005.7
2016-02-26T04:43:02.608Z,1005.7
2016-02-26T04:44:02.595Z,1005.72
2016-02-26T04:45:02.583Z,1005.67
2016-02-26T04:46:02.554Z,1005.71
2016-02-26T04:47:02.556Z,1005.64
2016-02-26T04:48:02.528Z,1005.6
2016-02-26T04:49:02.499Z,1005.61
2016-02-26T04:50:02.486Z,1005.59
2016-02-26T04:51:02.473Z,1005.61
2016-02-26T04:52:02.444Z,1005.56
2016-02-26T04:53:02.433Z,1005.59
2016-02-26T04:54:02.419Z,1005.55
2016-02-26T04:55:02.405Z,1005.53
2016-02-26T04:56:02.377Z,1005.56
2016-02-26T04:57:02.364Z,1005.56
2016-02-26T04:58:02.352Z,1005.56
2016-02-26T04:59:02.324Z,1005.54
2016-02-26T05:00:02.310Z,1005.53
2016-02-26T05:01:02.297Z,1005.51
2016-02-26T05:02:02.284Z,1005.48
2016-02-26T05:03:02.256Z,1005.47
2016-02-26T05:04:02.242Z,1005.51
2016-02-26T05:05:02.220Z,1005.51
2016-02-26T05:06:02.207Z,1005.52
2016-02-26T05:07:02.194Z,1005.52
2016-02-26T05:08:02.165Z,1005.49
2016-02-26T05:09:02.152Z,1005.46
2016-02-26T05:10:02.140Z,1005.51
2016-02-26T05:11:02.112Z,1005.47
2016-02-26T05:12:02.098Z,1005.47
2016-02-26T05:13:02.085Z,1005.46
2016-02-26T05:14:02.073Z,1005.44
2016-02-26T05:15:02.043Z,1005.46
2016-02-26T05:16:02.031Z,1005.46
2016-02-26T05:17:02.017Z,1005.45
2016-02-26T05:18:01.990Z,1005.47
2016-02-26T05:19:01.976Z,1005.45
2016-02-26T05:20:01.964Z,1005.45
2016-02-26T05:21:01.934Z,1005.47
2016-02-26T05:22:01.922Z,1005.41
2016-02-26T05:23:01.909Z,1005.42
2016-02-26T05:24:01.880Z,1005.4
2016-02-26T05:25:01.867Z,1005.42
2016-02-26T05:26:01.855Z,1005.4
2016-02-26T05:27:01.826Z,1005.4
2016-02-26T05:28:01.828Z,1005.4
2016-02-26T05:29:01.800Z,1005.42
2016-02-26T05:30:01.787Z,1005.41
2016-02-26T05:31:01.759Z,1005.39
2016-02-26T05:32:01.746Z,1005.42
2016-02-26T05:33:01.732Z,1005.41
2016-02-26T05:34:01.704Z,1005.44
2016-02-26T05:35:01.691Z,1005.43
2016-02-26T05:36:01.679Z,1005.37
2016-02-26T05:37:01.650Z,1005.37
2016-02-26T05:38:01.637Z,1005.36
2016-02-26T05:39:01.624Z,1005.36
2016-02-26T05:40:01.610Z,1005.35
2016-02-26T05:41:01.582Z,1005.35
2016-02-26T05:42:01.569Z,1005.36
2016-02-26T05:43:01.556Z,1005.35
2016-02-26T05:44:01.528Z,1005.34
2016-02-26T05:45:01.515Z,1005.36
2016-02-26T05:46:01.502Z,1005.34
2016-02-26T05:47:01.473Z,1005.35
2016-02-26T05:48:01.461Z,1005.38
2016-02-26T05:49:01.448Z,1005.36
2016-02-26T05:50:01.435Z,1005.38
2016-02-26T05:51:01.406Z,1005.36
2016-02-26T05:52:01.393Z,1005.41
2016-02-26T05:53:01.365Z,1005.4
2016-02-26T05:54:01.353Z,1005.43
2016-02-26T05:55:01.339Z,1005.42
2016-02-26T05:56:01.325Z,1005.42
2016-02-26T05:57:01.314Z,1005.44
2016-02-26T05:58:01.284Z,1005.4
2016-02-26T05:59:01.271Z,1005.46
2016-02-26T06:00:01.243Z,1005.48
2016-02-26T06:01:01.230Z,1005.48
2016-02-26T06:02:01.217Z,1005.47
2016-02-26T06:03:01.205Z,1005.49
2016-02-26T06:04:01.175Z,1005.44
2016-02-26T06:05:01.163Z,1005.46
2016-02-26T06:06:01.134Z,1005.48
2016-02-26T06:07:01.121Z,1005.47
2016-02-26T06:08:01.108Z,1005.49
2016-02-26T06:09:01.096Z,1005.47
2016-02-26T06:10:01.082Z,1005.49
2016-02-26T06:11:01.054Z,1005.52
2016-02-26T06:12:01.040Z,1005.51
2016-02-26T06:13:01.028Z,1005.51
2016-02-26T06:14:01.015Z,1005.54
2016-02-26T06:15:00.987Z,1005.52
2016-02-26T06:16:00.974Z,1005.54
2016-02-26T06:17:00.960Z,1005.53
2016-02-26T06:18:00.932Z,1005.56
2016-02-26T06:19:00.934Z,1005.57
2016-02-26T06:20:00.890Z,1005.58
2016-02-26T06:21:00.877Z,1005.57
2016-02-26T06:22:00.865Z,1005.57
2016-02-26T06:23:00.836Z,1005.56
2016-02-26T06:24:00.823Z,1005.53
2016-02-26T06:25:00.810Z,1005.56
2016-02-26T06:26:00.797Z,1005.55
2016-02-26T06:27:00.784Z,1005.59
2016-02-26T06:28:00.755Z,1005.58
2016-02-26T06:29:00.743Z,1005.59
2016-02-26T06:30:00.714Z,1005.61
2016-02-26T06:31:00.702Z,1005.54
2016-02-26T06:32:00.688Z,1005.56
2016-02-26T06:33:00.675Z,1005.58
2016-02-26T06:34:00.646Z,1005.59
2016-02-26T06:35:00.634Z,1005.64
2016-02-26T06:36:00.621Z,1005.68
2016-02-26T06:37:00.608Z,1005.66
2016-02-26T06:38:00.579Z,1005.65
2016-02-26T06:39:00.566Z,1005.66
2016-02-26T06:40:00.537Z,1005.68
2016-02-26T06:41:00.525Z,1005.69
2016-02-26T06:42:00.513Z,1005.65
2016-02-26T06:43:00.495Z,1005.64
2016-02-26T06:44:00.466Z,1005.67
2016-02-26T06:45:00.453Z,1005.66
2016-02-26T06:46:00.442Z,1005.63
2016-02-26T06:47:00.428Z,1005.67
2016-02-26T06:48:00.399Z,1005.64
2016-02-26T06:49:00.386Z,1005.65
2016-02-26T06:50:00.374Z,1005.65
2016-02-26T06:51:00.345Z,1005.69
2016-02-26T06:52:00.332Z,1005.69
2016-02-26T06:53:00.319Z,1005.7
2016-02-26T06:54:00.306Z,1005.66
2016-02-26T06:55:00.278Z,1005.71
2016-02-26T06:56:00.265Z,1005.68
2016-02-26T06:57:00.251Z,1005.7
2016-02-26T06:58:00.223Z,1005.69
2016-02-26T06:59:00.210Z,1005.72
2016-02-26T07:00:00.197Z,1005.75
2016-02-26T07:01:00.185Z,1005.78
2016-02-26T07:02:00.156Z,1005.77
2016-02-26T07:03:00.143Z,1005.79
2016-02-26T07:04:00.114Z,1005.8
2016-02-26T07:05:00.117Z,1005.81
2016-02-26T07:06:00.088Z,1005.77
2016-02-26T07:07:00.076Z,1005.8
2016-02-26T07:08:00.048Z,1005.78
2016-02-26T07:09:00.034Z,1005.77
2016-02-26T07:10:00.005Z,1005.79
2016-02-26T07:10:59.992Z,1005.77
2016-02-26T07:11:59.980Z,1005.78
2016-02-26T07:12:59.967Z,1005.8
2016-02-26T07:13:59.939Z,1005.79
2016-02-26T07:14:59.925Z,1005.83
2016-02-26T07:15:59.912Z,1005.83
2016-02-26T07:16:59.883Z,1005.82
2016-02-26T07:17:59.870Z,1005.84
2016-02-26T07:18:59.857Z,1005.87
2016-02-26T07:19:59.830Z,1005.89
2016-02-26T07:20:59.817Z,1005.85
2016-02-26T07:21:59.803Z,1005.86
2016-02-26T07:22:59.791Z,1005.88
2016-02-26T07:23:59.761Z,1005.87
2016-02-26T07:24:59.765Z,1005.91
2016-02-26T07:25:59.736Z,1005.92
2016-02-26T07:26:59.708Z,1005.91
2016-02-26T07:27:59.694Z,1005.91
2016-02-26T07:28:59.682Z,1005.91
2016-02-26T07:29:59.652Z,1005.93
2016-02-26T07:30:59.640Z,1005.94
2016-02-26T07:31:59.626Z,1005.98
2016-02-26T07:32:59.615Z,1005.95
2016-02-26T07:33:59.586Z,1005.97
2016-02-26T07:34:59.573Z,1005.99
2016-02-26T07:35:59.560Z,1005.96
2016-02-26T07:36:59.531Z,1005.92
2016-02-26T07:37:59.518Z,1005.92
2016-02-26T07:38:59.506Z,1005.93
2016-02-26T07:39:59.477Z,1005.89
2016-02-26T07:40:59.464Z,1005.9
2016-02-26T07:41:59.451Z,1005.91
2016-02-26T07:42:59.422Z,1005.9
2016-02-26T07:43:59.409Z,1005.88
2016-02-26T07:44:59.396Z,1005.88
2016-02-26T07:45:59.384Z,1005.88
2016-02-26T07:46:59.356Z,1005.89
2016-02-26T07:47:59.342Z,1005.9
2016-02-26T07:48:59.329Z,1005.88
2016-02-26T07:49:59.300Z,1005.9
2016-02-26T07:50:59.288Z,1005.89
2016-02-26T07:51:59.274Z,1005.93
2016-02-26T07:52:59.247Z,1005.92
2016-02-26T07:53:59.233Z,1005.93
2016-02-26T07:54:59.220Z,1005.95
2016-02-26T07:55:59.207Z,1005.9
2016-02-26T07:56:59.194Z,1005.91
2016-02-26T07:57:59.165Z,1005.9
2016-02-26T07:58:59.153Z,1005.92
2016-02-26T07:59:59.125Z,1005.93
2016-02-26T08:00:59.111Z,1005.93
2016-02-26T08:01:59.099Z,1006.02
2016-02-26T08:02:59.070Z,1006.04
2016-02-26T08:03:59.057Z,1006
2016-02-26T08:04:59.043Z,1006.01
2016-02-26T08:05:59.015Z,1006.02
2016-02-26T08:06:59.002Z,1005.99
2016-02-26T08:07:58.990Z,1006.02
2016-02-26T08:08:58.962Z,1005.99
2016-02-26T08:09:58.948Z,1006.02
2016-02-26T08:10:58.935Z,1006.05
2016-02-26T08:11:58.923Z,1006.05
2016-02-26T08:12:58.893Z,1006.05
2016-02-26T08:13:58.912Z,1006.09
2016-02-26T08:14:58.868Z,1006.08
2016-02-26T08:15:58.839Z,1006.06
2016-02-26T08:16:58.826Z,1006.02
2016-02-26T08:17:58.814Z,1006.04
2016-02-26T08:18:58.784Z,1006.06
2016-02-26T08:19:58.772Z,1006.07
2016-02-26T08:20:58.759Z,1006.09
2016-02-26T08:21:58.730Z,1006.1
2016-02-26T08:22:58.717Z,1006.08
2016-02-26T08:23:58.705Z,1006.1
2016-02-26T08:24:58.692Z,1006.05
2016-02-26T08:25:58.663Z,1006.1
2016-02-26T08:26:58.650Z,1006.07
2016-02-26T08:27:58.638Z,1006.07
2016-02-26T08:28:58.624Z,1006.07
2016-02-26T08:29:58.596Z,1006.08
2016-02-26T08:30:58.583Z,1006.07
2016-02-26T08:31:58.569Z,1006.07
2016-02-26T08:32:58.541Z,1006.13
2016-02-26T08:33:58.529Z,1006.11
2016-02-26T08:34:58.515Z,1006.13
2016-02-26T08:35:58.487Z,1006.11
2016-02-26T08:36:58.474Z,1006.14
2016-02-26T08:37:58.460Z,1006.15
2016-02-26T08:38:58.432Z,1006.18
2016-02-26T08:39:58.419Z,1006.15
2016-02-26T08:40:58.406Z,1006.17
2016-02-26T08:41:58.393Z,1006.22
2016-02-26T08:42:58.365Z,1006.14
2016-02-26T08:43:58.351Z,1006.08
2016-02-26T08:44:58.324Z,1006.06
2016-02-26T08:45:58.311Z,1006.05
2016-02-26T08:46:58.298Z,1006.05
2016-02-26T08:47:58.269Z,1006.07
2016-02-26T08:48:58.256Z,1006.03
2016-02-26T08:49:58.243Z,1006
2016-02-26T08:50:58.230Z,1006.33
2016-02-26T08:51:58.202Z,1006.33
2016-02-26T08:52:58.189Z,1006.31
2016-02-26T08:53:58.175Z,1006.27
2016-02-26T08:54:58.147Z,1006.32
2016-02-26T08:55:58.150Z,1006.34
2016-02-26T08:56:58.122Z,1006.28
2016-02-26T08:57:58.108Z,1006.32
2016-02-26T08:58:58.080Z,1006.32
2016-02-26T08:59:58.067Z,1006.35
2016-02-26T09:00:58.054Z,1006.35
2016-02-26T09:01:58.025Z,1006.3
2016-02-26T09:02:58.013Z,1006.32
2016-02-26T09:03:58.000Z,1006.27
2016-02-26T09:04:57.971Z,1006.28
2016-02-26T09:05:57.958Z,1006.28
2016-02-26T09:06:57.946Z,1006.29
2016-02-26T09:07:57.916Z,1006.28
2016-02-26T09:08:57.904Z,1006.24
2016-02-26T09:09:57.891Z,1006.24
2016-02-26T09:10:57.878Z,1006.26
2016-02-26T09:11:57.849Z,1006.28
2016-02-26T09:12:57.837Z,1006.2
2016-02-26T09:13:57.823Z,1006.16
2016-02-26T09:14:57.795Z,1006.22
2016-02-26T09:15:57.782Z,1006.26
2016-02-26T09:16:57.770Z,1006.19
2016-02-26T09:17:57.740Z,1006.23
2016-02-26T09:18:57.728Z,1006.25
2016-02-26T09:19:57.715Z,1005.97
2016-02-26T09:20:57.701Z,1005.98
2016-02-26T09:21:57.673Z,1005.94
2016-02-26T09:22:57.660Z,1005.89
2016-02-26T09:23:57.647Z,1005.9
2016-02-26T09:24:57.619Z,1005.87
2016-02-26T09:25:57.605Z,1005.86
2016-02-26T09:26:57.592Z,1005.81
2016-02-26T09:27:57.564Z,1005.82
2016-02-26T09:28:57.552Z,1005.8
2016-02-26T09:29:57.538Z,1005.79
2016-02-26T09:30:57.525Z,1005.8
2016-02-26T09:31:57.497Z,1005.81
2016-02-26T09:32:57.483Z,1005.77
2016-02-26T09:33:57.502Z,1005.83
2016-02-26T09:34:57.443Z,1005.82
2016-02-26T09:35:57.429Z,1005.82
2016-02-26T09:36:57.416Z,1005.85
2016-02-26T09:37:57.387Z,1005.78
2016-02-26T09:38:57.375Z,1005.77
2016-02-26T09:39:57.362Z,1005.77
2016-02-26T09:40:57.334Z,1005.82
2016-02-26T09:41:57.321Z,1005.81
2016-02-26T09:42:57.307Z,1005.81
2016-02-26T09:43:57.279Z,1005.8
2016-02-26T09:44:57.265Z,1005.83
2016-02-26T09:45:57.254Z,1005.86
2016-02-26T09:46:57.240Z,1005.84
2016-02-26T09:47:57.211Z,1005.84
2016-02-26T09:48:57.198Z,1005.8
2016-02-26T09:49:57.170Z,1005.84
2016-02-26T09:50:57.157Z,1005.83
2016-02-26T09:51:57.145Z,1005.82
2016-02-26T09:52:57.117Z,1005.84
2016-02-26T09:53:57.103Z,1005.84
2016-02-26T09:54:57.090Z,1005.83
2016-02-26T09:55:57.078Z,1005.84
2016-02-26T09:56:57.064Z,1005.88
2016-02-26T09:57:57.036Z,1005.83
2016-02-26T09:58:57.022Z,1005.83
2016-02-26T09:59:57.010Z,1005.84
2016-02-26T10:00:56.981Z,1005.85
2016-02-26T10:01:56.968Z,1005.83
2016-02-26T10:02:56.939Z,1005.85
2016-02-26T10:03:56.927Z,1005.85
2016-02-26T10:04:56.913Z,1005.86
2016-02-26T10:05:56.885Z,1005.86
2016-02-26T10:06:56.872Z,1005.85
2016-02-26T10:07:56.859Z,1005.87
2016-02-26T10:08:56.846Z,1005.89
2016-02-26T10:09:56.817Z,1005.9
2016-02-26T10:10:56.805Z,1005.86
2016-02-26T10:11:56.792Z,1005.89
2016-02-26T10:12:56.763Z,1005.86
2016-02-26T10:13:56.766Z,1005.84
2016-02-26T10:14:56.738Z,1005.89
2016-02-26T10:15:56.709Z,1005.84
2016-02-26T10:16:56.693Z,1005.86
2016-02-26T10:17:56.669Z,1005.87
2016-02-26T10:18:56.643Z,1005.86
2016-02-26T10:19:56.604Z,1005.84
2016-02-26T10:20:56.581Z,1005.86
2016-02-26T10:21:56.556Z,1005.86
2016-02-26T10:22:56.524Z,1005.88
2016-02-26T10:23:56.507Z,1005.9
2016-02-26T10:24:56.472Z,1005.86
2016-02-26T10:25:56.456Z,1005.87
2016-02-26T10:26:56.439Z,1005.87
2016-02-26T10:27:56.424Z,1005.88
2016-02-26T10:28:56.425Z,1005.87
2016-02-26T10:29:56.380Z,1005.86
2016-02-26T10:30:56.365Z,1005.84
2016-02-26T10:31:56.351Z,1005.83
2016-02-26T10:32:56.322Z,1005.84
2016-02-26T10:33:56.309Z,1005.79
2016-02-26T10:34:56.279Z,1005.84
2016-02-26T10:35:56.267Z,1005.86
2016-02-26T10:36:56.253Z,1005.83
2016-02-26T10:37:56.239Z,1005.87
2016-02-26T10:38:56.210Z,1005.83
2016-02-26T10:39:56.197Z,1005.88
2016-02-26T10:40:56.184Z,1005.86
2016-02-26T10:41:56.156Z,1005.87
2016-02-26T10:42:56.143Z,1005.88
2016-02-26T10:43:56.129Z,1005.93
2016-02-26T10:44:56.101Z,1005.89
2016-02-26T10:45:56.088Z,1005.87
2016-02-26T10:46:56.075Z,1005.85
2016-02-26T10:47:56.062Z,1005.84
2016-02-26T10:48:56.034Z,1005.87
2016-02-26T10:49:56.036Z,1005.85
2016-02-26T10:50:56.009Z,1005.86
2016-02-26T10:51:55.979Z,1005.9
2016-02-26T10:52:55.967Z,1005.86
2016-02-26T10:53:55.953Z,1005.86
2016-02-26T10:54:55.941Z,1005.85
2016-02-26T10:55:55.911Z,1005.83
2016-02-26T10:56:55.899Z,1005.88
2016-02-26T10:57:55.886Z,1005.86
2016-02-26T10:58:55.858Z,1005.83
2016-02-26T10:59:55.844Z,1005.85
2016-02-26T11:00:55.832Z,1005.87
2016-02-26T11:01:55.819Z,1005.85
2016-02-26T11:02:55.790Z,1005.84
2016-02-26T11:03:55.777Z,1005.83
2016-02-26T11:04:55.749Z,1005.83
2016-02-26T11:05:55.735Z,1005.79
2016-02-26T11:06:55.723Z,1005.75
2016-02-26T11:07:55.709Z,1005.74
2016-02-26T11:08:55.697Z,1005.74
2016-02-26T11:09:55.669Z,1005.68
2016-02-26T11:10:55.655Z,1005.72
2016-02-26T11:11:55.626Z,1005.72
2016-02-26T11:12:55.615Z,1005.71
2016-02-26T11:13:55.601Z,1005.68
2016-02-26T11:14:55.588Z,1005.74
2016-02-26T11:15:55.575Z,1005.7
2016-02-26T11:16:55.546Z,1005.73
2016-02-26T11:17:55.534Z,1005.69
2016-02-26T11:18:55.505Z,1005.7
2016-02-26T11:19:55.492Z,1005.61
2016-02-26T11:20:55.495Z,1005.63
2016-02-26T11:21:55.466Z,1005.6
2016-02-26T11:22:55.437Z,1005.6
2016-02-26T11:23:55.424Z,1005.6
2016-02-26T11:24:55.411Z,1005.57
2016-02-26T11:25:55.383Z,1005.53
2016-02-26T11:26:55.370Z,1005.53
2016-02-26T11:27:55.357Z,1005.53
2016-02-26T11:28:55.329Z,1005.52
2016-02-26T11:29:55.316Z,1005.54
2016-02-26T11:30:55.303Z,1005.53
2016-02-26T11:31:55.290Z,1005.51
2016-02-26T11:32:55.277Z,1005.55
2016-02-26T11:33:55.249Z,1005.47
2016-02-26T11:34:55.235Z,1005.46
2016-02-26T11:35:55.222Z,1005.47
2016-02-26T11:36:55.194Z,1005.48
2016-02-26T11:37:55.182Z,1005.49
2016-02-26T11:38:55.169Z,1005.45
2016-02-26T11:39:55.140Z,1005.46
2016-02-26T11:40:55.126Z,1005.44
2016-02-26T11:41:55.114Z,1005.41
2016-02-26T11:42:55.101Z,1005.42
2016-02-26T11:43:55.073Z,1005.41
2016-02-26T11:44:55.059Z,1005.43
2016-02-26T11:45:55.046Z,1005.39
2016-02-26T11:46:55.018Z,1005.38
2016-02-26T11:47:55.005Z,1005.36
2016-02-26T11:48:54.992Z,1005.36
2016-02-26T11:49:54.978Z,1005.36
2016-02-26T11:50:54.951Z,1005.33
2016-02-26T11:51:54.937Z,1005.35
2016-02-26T11:52:54.925Z,1005.31
2016-02-26T11:53:54.912Z,1005.26
2016-02-26T11:54:54.884Z,1005.26
2016-02-26T11:55:54.870Z,1005.25
2016-02-26T11:56:54.842Z,1005.26
2016-02-26T11:57:54.828Z,1005.25
2016-02-26T11:58:54.816Z,1005.24
2016-02-26T11:59:54.819Z,1005.22
2016-02-26T12:00:54.774Z,1005.16
2016-02-26T12:01:54.761Z,1005.19
2016-02-26T12:02:54.749Z,1005.15
2016-02-26T12:03:54.719Z,1005.18
2016-02-26T12:04:54.707Z,1005.17
2016-02-26T12:05:54.694Z,1005.13
2016-02-26T12:06:54.681Z,1005.14